Time;durP1;ratioP1;P1;durP2;ratioP2;P2;SDS_P1;SDS_P2;PMS_P1;PMS_P2;Temp;Humidity;BMP_temperature;BMP_pressure;BME280_temperature;BME280_humidity;BME280_pressure;Samples;Min_cycle;Max_cycle;Signal;HPM_P1;HPM_P2
2021/06/04 00:01:24;;;;;;;1.80;1.30;;;23.10;41.90;;;;;;5014136;28;20417;-58
2021/06/04 00:03:51;;;;;;;1.83;1.20;;;23.10;41.90;;;;;;5013795;28;20388;-59
2021/06/04 00:06:17;;;;;;;1.40;1.15;;;23.10;42.00;;;;;;5013711;28;20761;-58
2021/06/04 00:08:43;;;;;;;1.60;1.20;;;23.00;41.90;;;;;;5013234;28;20476;-58
2021/06/04 00:11:17;;;;;;;1.43;1.13;;;23.00;41.90;;;;;;5013822;28;20476;-58
2021/06/04 00:13:56;;;;;;;1.85;1.40;;;23.00;41.90;;;;;;5013474;28;20443;-58
2021/06/04 00:16:39;;;;;;;1.50;1.10;;;23.00;41.90;;;;;;5014207;28;20462;-58
2021/06/04 00:19:13;;;;;;;1.65;1.45;;;23.00;41.90;;;;;;5013874;28;20789;-59
2021/06/04 00:21:42;;;;;;;1.45;1.10;;;23.00;41.90;;;;;;5012831;28;20389;-62
2021/06/04 00:24:09;;;;;;;1.75;1.15;;;23.00;42.00;;;;;;5013665;28;20392;-58
2021/06/04 00:26:37;;;;;;;2.13;1.27;;;22.90;41.90;;;;;;5013666;28;20399;-58
2021/06/04 00:29:04;;;;;;;1.85;1.30;;;22.90;42.00;;;;;;5013269;28;20399;-58
2021/06/04 00:31:30;;;;;;;1.40;1.10;;;22.90;42.00;;;;;;5012920;28;20389;-58
2021/06/04 00:33:56;;;;;;;1.80;1.30;;;22.90;42.00;;;;;;5013524;28;20403;-58
2021/06/04 00:36:24;;;;;;;1.77;1.30;;;22.90;42.00;;;;;;5013569;28;20409;-58
2021/06/04 00:38:50;;;;;;;2.40;1.58;;;22.90;42.00;;;;;;5013449;28;20397;-58
2021/06/04 00:41:23;;;;;;;2.28;1.65;;;22.90;42.10;;;;;;5013475;28;20403;-59
2021/06/04 00:43:50;;;;;;;2.08;1.40;;;22.90;42.10;;;;;;5012957;28;20416;-58
2021/06/04 00:46:16;;;;;;;1.90;1.40;;;22.90;42.10;;;;;;5013458;28;20405;-58
2021/06/04 00:48:42;;;;;;;2.10;1.50;;;22.90;42.20;;;;;;5013273;28;20377;-58
2021/06/04 00:51:36;;;;;;;1.73;1.50;;;22.80;42.10;;;;;;5013286;28;20527;-58
2021/06/04 00:54:04;;;;;;;1.95;1.50;;;22.80;42.10;;;;;;5013065;28;20409;-58
2021/06/04 00:56:31;;;;;;;2.20;1.40;;;22.80;42.10;;;;;;5013258;28;20403;-59
2021/06/04 00:58:57;;;;;;;2.25;1.40;;;22.80;42.10;;;;;;5013081;28;20419;-59
2021/06/04 01:01:29;;;;;;;1.98;1.38;;;22.80;42.10;;;;;;5012910;28;20389;-58
2021/06/04 01:04:24;;;;;;;1.85;1.45;;;22.80;42.10;;;;;;5010809;28;20393;-59
2021/06/04 01:07:10;;;;;;;2.20;1.58;;;22.80;42.20;;;;;;5012493;28;20404;-59
2021/06/04 01:09:51;;;;;;;2.28;1.50;;;22.80;42.10;;;;;;5012057;28;20401;-59
2021/06/04 01:12:57;;;;;;;2.60;1.47;;;22.80;42.10;;;;;;5012807;28;20483;-59
2021/06/04 01:15:55;;;;;;;1.80;1.33;;;22.80;42.20;;;;;;5012404;28;20441;-58
2021/06/04 01:18:35;;;;;;;2.13;1.40;;;22.80;42.20;;;;;;5012371;28;20477;-59
2021/06/04 01:21:21;;;;;;;1.92;1.50;;;22.80;42.20;;;;;;5012651;28;20389;-59
2021/06/04 01:24:12;;;;;;;2.00;1.50;;;22.80;42.20;;;;;;5012067;28;20392;-59
2021/06/04 01:27:04;;;;;;;1.93;1.47;;;22.80;42.20;;;;;;5012084;28;20429;-59
2021/06/04 01:29:35;;;;;;;1.63;1.30;;;22.70;42.20;;;;;;5012400;28;20418;-58
2021/06/04 01:32:09;;;;;;;2.03;1.38;;;22.70;42.20;;;;;;5012444;28;20404;-59
2021/06/04 01:34:42;;;;;;;1.63;1.40;;;22.70;42.10;;;;;;5012288;28;20761;-61
2021/06/04 01:37:18;;;;;;;1.70;1.27;;;22.70;42.10;;;;;;5012481;28;20488;-63
2021/06/04 01:39:48;;;;;;;1.65;1.33;;;22.70;42.10;;;;;;5011946;28;20387;-59
2021/06/04 01:42:18;;;;;;;1.95;1.40;;;22.70;42.10;;;;;;5012229;28;20920;-59
2021/06/04 01:45:03;;;;;;;1.85;1.45;;;22.70;42.20;;;;;;5012091;28;20459;-59
2021/06/04 01:47:42;;;;;;;2.25;1.30;;;22.70;42.20;;;;;;5012145;28;20412;-59
2021/06/04 01:50:16;;;;;;;2.03;1.20;;;22.70;42.20;;;;;;5012126;28;20392;-58
2021/06/04 01:52:44;;;;;;;3.50;1.40;;;22.70;42.20;;;;;;5012261;28;20773;-58
2021/06/04 01:55:14;;;;;;;1.70;1.35;;;22.60;42.20;;;;;;5012211;28;20508;-58
2021/06/04 01:57:47;;;;;;;1.52;1.33;;;22.70;42.20;;;;;;5010593;28;20872;-59
2021/06/04 02:00:25;;;;;;;1.60;1.40;;;22.70;42.80;;;;;;5012128;28;20420;-58
2021/06/04 02:02:51;;;;;;;2.10;1.40;;;22.60;42.10;;;;;;5012033;28;20423;-59
2021/06/04 02:05:23;;;;;;;2.50;1.67;;;22.70;42.20;;;;;;5012131;28;20383;-58
2021/06/04 02:07:49;;;;;;;2.47;1.60;;;22.60;42.20;;;;;;5011800;28;20408;-58
2021/06/04 02:10:24;;;;;;;2.00;1.50;;;22.60;42.10;;;;;;5011823;28;20396;-58
2021/06/04 02:12:50;;;;;;;1.65;1.40;;;22.60;42.10;;;;;;5011954;28;20393;-58
2021/06/04 02:15:24;;;;;;;2.15;1.33;;;22.60;42.20;;;;;;5011863;28;20417;-58
2021/06/04 02:18:27;;;;;;;2.70;1.50;;;22.60;42.20;;;;;;5011681;28;20431;-58
2021/06/04 02:21:07;;;;;;;2.20;1.50;;;22.60;42.20;;;;;;5011780;28;20391;-58
2021/06/04 02:23:55;;;;;;;2.17;1.60;;;22.60;42.20;;;;;;5011590;28;20381;-58
2021/06/04 02:26:57;;;;;;;2.20;1.60;;;22.60;42.30;;;;;;5007165;28;20455;-58
2021/06/04 02:29:48;;;;;;;1.60;1.27;;;22.60;42.30;;;;;;5010908;28;20499;-58
2021/06/04 02:32:22;;;;;;;1.67;1.40;;;22.60;42.20;;;;;;5011884;28;20480;-59
2021/06/04 02:35:01;;;;;;;1.80;1.40;;;22.50;42.30;;;;;;5011477;28;20504;-59
2021/06/04 02:37:39;;;;;;;1.88;1.40;;;22.60;42.30;;;;;;5011442;28;20399;-58
2021/06/04 02:40:08;;;;;;;1.50;1.30;;;22.50;42.30;;;;;;5011197;28;20447;-58
2021/06/04 02:42:40;;;;;;;2.00;1.52;;;22.50;42.30;;;;;;5009768;28;20393;-58
2021/06/04 02:45:13;;;;;;;2.30;1.50;;;22.50;42.30;;;;;;5011400;28;20416;-59
2021/06/04 02:47:44;;;;;;;1.73;1.30;;;22.50;42.20;;;;;;5010981;28;20400;-58
2021/06/04 02:50:37;;;;;;;1.70;1.48;;;22.50;42.60;;;;;;5011576;28;20400;-59
2021/06/04 02:53:36;;;;;;;1.60;1.30;;;22.50;42.20;;;;;;5011466;28;21000;-58
2021/06/04 02:56:06;;;;;;;1.98;1.40;;;22.50;42.30;;;;;;5006433;28;20413;-59
2021/06/04 02:58:33;;;;;;;1.63;1.30;;;22.50;42.40;;;;;;5011821;28;20385;-59
2021/06/04 03:00:59;;;;;;;1.58;1.30;;;22.50;42.40;;;;;;5011310;28;20442;-60
2021/06/04 03:03:25;;;;;;;1.70;1.40;;;22.40;42.30;;;;;;5011345;28;20392;-59
2021/06/04 03:05:51;;;;;;;2.20;1.50;;;22.50;42.40;;;;;;5010867;28;20900;-59
2021/06/04 03:08:19;;;;;;;2.03;1.40;;;22.40;42.40;;;;;;5011408;28;20778;-59
2021/06/04 03:10:48;;;;;;;1.65;1.25;;;22.40;42.40;;;;;;5011366;28;20385;-59
2021/06/04 03:13:23;;;;;;;1.48;1.20;;;22.40;42.30;;;;;;5011221;28;20723;-60
2021/06/04 03:16:00;;;;;;;1.80;1.40;;;22.40;42.40;;;;;;5010734;28;20418;-59
2021/06/04 03:18:37;;;;;;;1.67;1.40;;;22.40;42.40;;;;;;5011399;28;20409;-58
2021/06/04 03:21:08;;;;;;;1.63;1.30;;;22.40;42.40;;;;;;5011325;28;20498;-59
2021/06/04 03:23:37;;;;;;;1.80;1.30;;;22.40;42.40;;;;;;5011313;28;20381;-59
2021/06/04 03:26:10;;;;;;;1.80;1.30;;;22.40;42.40;;;;;;5010015;28;20903;-59
2021/06/04 03:28:38;;;;;;;1.45;1.20;;;22.40;42.40;;;;;;5011242;28;20468;-58
2021/06/04 03:31:06;;;;;;;1.88;1.42;;;22.40;42.40;;;;;;5011230;28;20397;-58
2021/06/04 03:33:34;;;;;;;1.88;1.45;;;22.40;42.40;;;;;;5010967;28;20399;-58
2021/06/04 03:36:04;;;;;;;1.88;1.33;;;22.40;42.40;;;;;;5010795;28;20777;-59
2021/06/04 03:38:30;;;;;;;1.90;1.50;;;22.40;42.50;;;;;;5011366;28;20448;-59
2021/06/04 03:40:56;;;;;;;1.80;1.40;;;22.40;42.50;;;;;;5011068;28;20408;-58
2021/06/04 03:43:25;;;;;;;1.65;1.38;;;22.40;42.50;;;;;;5013591;28;20405;-59
2021/06/04 03:45:52;;;;;;;1.70;1.50;;;22.40;42.50;;;;;;5014037;28;20451;-58
2021/06/04 03:48:23;;;;;;;2.05;1.50;;;22.40;42.50;;;;;;5014394;28;20459;-59
2021/06/04 03:50:52;;;;;;;2.85;1.55;;;22.30;42.50;;;;;;5014334;28;20392;-58
2021/06/04 03:53:19;;;;;;;2.00;1.30;;;22.40;42.60;;;;;;5014473;28;20753;-59
2021/06/04 03:55:45;;;;;;;2.22;1.50;;;22.30;42.60;;;;;;5013556;28;20897;-59
2021/06/04 03:58:12;;;;;;;2.67;1.38;;;22.30;42.70;;;;;;5013886;28;20400;-58
2021/06/04 04:00:54;;;;;;;2.35;1.40;;;22.40;42.90;;;;;;5014127;28;20849;-58
2021/06/04 04:03:22;;;;;;;2.33;1.40;;;22.40;43.40;;;;;;5014185;28;20428;-58
2021/06/04 04:05:48;;;;;;;2.80;1.50;;;22.40;43.70;;;;;;5013264;28;20937;-58
2021/06/04 04:08:18;;;;;;;2.40;1.60;;;22.40;43.90;;;;;;5012458;28;20527;-59
2021/06/04 04:10:44;;;;;;;3.20;1.40;;;22.40;44.00;;;;;;5013998;28;20384;-58
2021/06/04 04:13:13;;;;;;;2.00;1.30;;;22.40;44.20;;;;;;5014145;28;20869;-58
2021/06/04 04:15:39;;;;;;;2.30;1.42;;;22.40;44.40;;;;;;5013651;28;20524;-59
2021/06/04 04:18:04;;;;;;;2.35;1.30;;;22.50;43.80;;;;;;5013666;28;20454;-58
2021/06/04 04:20:35;;;;;;;2.05;1.20;;;22.50;43.80;;;;;;5014007;28;20522;-58
2021/06/04 04:23:02;;;;;;;2.75;1.40;;;22.50;44.20;;;;;;5014009;28;20384;-59
2021/06/04 04:25:31;;;;;;;2.15;1.25;;;22.50;44.40;;;;;;5013854;28;20396;-58
2021/06/04 04:27:58;;;;;;;4.60;1.30;;;22.50;44.20;;;;;;5013454;28;20400;-59
2021/06/04 04:30:24;;;;;;;2.97;1.10;;;22.50;43.50;;;;;;5013733;28;20404;-60
2021/06/04 04:32:50;;;;;;;2.95;1.20;;;22.50;43.30;;;;;;5013658;28;20393;-59
2021/06/04 04:35:20;;;;;;;1.70;1.17;;;22.50;43.70;;;;;;5013620;28;20523;-61
2021/06/04 04:37:46;;;;;;;3.13;1.50;;;22.40;43.40;;;;;;5013090;28;20448;-59
2021/06/04 04:40:14;;;;;;;1.63;1.20;;;22.50;43.90;;;;;;5013544;28;20396;-59
2021/06/04 04:42:39;;;;;;;3.97;1.35;;;22.50;44.00;;;;;;5013435;28;20388;-60
2021/06/04 04:45:09;;;;;;;2.53;1.30;;;22.50;44.70;;;;;;5013262;28;20444;-59
2021/06/04 04:47:36;;;;;;;2.33;1.20;;;22.50;44.40;;;;;;5011854;28;20413;-59
2021/06/04 04:50:03;;;;;;;2.53;1.45;;;22.50;43.90;;;;;;5013030;28;20769;-59
2021/06/04 04:52:29;;;;;;;2.40;1.70;;;22.50;44.00;;;;;;5012908;28;20877;-59
2021/06/04 04:54:56;;;;;;;2.93;1.83;;;22.50;44.10;;;;;;5012845;28;20439;-59
2021/06/04 04:57:24;;;;;;;3.22;2.10;;;22.50;44.00;;;;;;5013208;28;20388;-59
2021/06/04 04:59:50;;;;;;;4.13;2.20;;;22.50;43.90;;;;;;5012590;28;20537;-59
2021/06/04 05:02:17;;;;;;;2.55;1.92;;;22.50;43.70;;;;;;5014508;28;20435;-61
2021/06/04 05:04:43;;;;;;;2.72;1.80;;;22.50;43.90;;;;;;5026464;28;20883;-59
2021/06/04 05:07:09;;;;;;;3.45;2.08;;;22.50;44.10;;;;;;5016180;28;20459;-59
2021/06/04 05:09:35;;;;;;;4.18;2.10;;;22.50;44.00;;;;;;5026533;28;20481;-60
2021/06/04 05:12:02;;;;;;;4.53;2.00;;;22.50;43.80;;;;;;5012264;28;20480;-59
2021/06/04 05:14:27;;;;;;;3.60;2.20;;;22.50;43.90;;;;;;5012242;28;20905;-59
2021/06/04 05:16:53;;;;;;;3.78;2.20;;;22.40;44.20;;;;;;5012648;28;20472;-59
2021/06/04 05:19:19;;;;;;;4.00;2.00;;;22.40;44.30;;;;;;5012774;28;20951;-62
2021/06/04 05:21:45;;;;;;;3.88;2.00;;;22.40;44.10;;;;;;5012026;28;20889;-59
2021/06/04 05:24:11;;;;;;;4.78;1.88;;;22.50;44.20;;;;;;5012667;28;20496;-65
2021/06/04 05:26:37;;;;;;;3.63;1.90;;;22.50;44.90;;;;;;5012604;28;20467;-62
2021/06/04 05:29:05;;;;;;;3.80;1.80;;;22.50;44.40;;;;;;5012556;28;20393;-64
2021/06/04 05:31:31;;;;;;;3.40;1.97;;;22.50;44.10;;;;;;5012572;28;20907;-60
2021/06/04 05:33:56;;;;;;;3.15;1.65;;;22.50;44.30;;;;;;5011830;28;20397;-64
2021/06/04 05:36:32;;;;;;;3.03;1.73;;;22.50;44.20;;;;;;5012403;28;20451;-61
2021/06/04 05:38:59;;;;;;;5.78;1.92;;;22.50;44.20;;;;;;5012412;28;20384;-62
2021/06/04 05:41:25;;;;;;;4.63;1.90;;;22.60;44.30;;;;;;5012448;28;20401;-61
2021/06/04 05:43:52;;;;;;;2.70;1.53;;;22.60;44.40;;;;;;5011814;28;20458;-59
2021/06/04 05:46:19;;;;;;;2.80;1.98;;;22.60;43.90;;;;;;5012351;28;20405;-59
2021/06/04 05:48:45;;;;;;;2.83;1.90;;;22.60;44.50;;;;;;5012253;28;20385;-59
2021/06/04 05:51:21;;;;;;;3.35;1.80;;;22.60;44.20;;;;;;5012364;28;20403;-59
2021/06/04 05:53:47;;;;;;;4.60;1.88;;;22.60;43.90;;;;;;5011751;28;20421;-59
2021/06/04 05:56:15;;;;;;;3.58;1.85;;;22.60;44.10;;;;;;5012468;28;20420;-58
2021/06/04 05:58:43;;;;;;;5.07;2.00;;;22.60;44.10;;;;;;5012066;28;20873;-59
2021/06/04 06:01:13;;;;;;;2.92;1.88;;;22.70;44.10;;;;;;5012345;28;20459;-58
2021/06/04 06:03:39;;;;;;;5.00;1.90;;;22.70;44.10;;;;;;5011911;28;20389;-58
2021/06/04 06:06:06;;;;;;;2.37;1.77;;;22.60;43.80;;;;;;5011068;28;20489;-59
2021/06/04 06:08:32;;;;;;;2.42;1.73;;;22.60;43.80;;;;;;5012097;28;20389;-58
2021/06/04 06:10:59;;;;;;;3.30;1.77;;;22.70;44.50;;;;;;5011962;28;20404;-59
2021/06/04 06:13:26;;;;;;;2.17;1.60;;;22.60;43.90;;;;;;5011801;28;20395;-59
2021/06/04 06:15:53;;;;;;;2.70;1.63;;;22.70;43.80;;;;;;5011379;28;20416;-59
2021/06/04 06:18:23;;;;;;;3.22;1.83;;;22.70;43.70;;;;;;5011948;28;20389;-59
2021/06/04 06:20:50;;;;;;;2.75;1.65;;;22.70;43.60;;;;;;5011875;28;20463;-59
2021/06/04 06:23:20;;;;;;;2.50;1.80;;;22.70;43.50;;;;;;5011891;28;20893;-58
2021/06/04 06:25:49;;;;;;;3.20;1.77;;;22.70;43.50;;;;;;5011559;28;20961;-59
2021/06/04 06:28:18;;;;;;;2.40;1.40;;;22.70;43.60;;;;;;5010400;28;20412;-59
2021/06/04 06:30:45;;;;;;;2.70;1.60;;;22.70;43.50;;;;;;5011138;28;20397;-61
2021/06/04 06:33:12;;;;;;;3.30;1.60;;;22.70;43.40;;;;;;5011769;28;20452;-59
2021/06/04 06:35:44;;;;;;;3.10;1.70;;;22.70;43.40;;;;;;5011233;28;20504;-59
2021/06/04 06:38:10;;;;;;;3.33;1.65;;;22.70;43.50;;;;;;5011565;28;20443;-59
2021/06/04 06:40:37;;;;;;;3.42;1.63;;;22.70;43.40;;;;;;5011684;28;20421;-59
2021/06/04 06:43:04;;;;;;;3.58;1.70;;;22.80;43.50;;;;;;5011382;28;20385;-59
2021/06/04 06:45:30;;;;;;;3.03;1.70;;;22.80;43.00;;;;;;5011905;28;20892;-59
2021/06/04 06:47:56;;;;;;;3.65;1.52;;;22.80;44.40;;;;;;5011695;28;20393;-65
2021/06/04 06:50:25;;;;;;;3.38;1.60;;;22.90;44.40;;;;;;5011977;28;20397;-59
2021/06/04 06:52:51;;;;;;;3.63;1.48;;;22.90;44.40;;;;;;5011810;28;20411;-65
2021/06/04 06:55:17;;;;;;;3.10;1.58;;;22.90;44.20;;;;;;5012354;28;21106;-60
2021/06/04 06:57:43;;;;;;;3.20;1.73;;;22.90;44.20;;;;;;5011235;28;20413;-58
2021/06/04 07:00:14;;;;;;;2.75;1.60;;;22.90;44.10;;;;;;5011295;28;20506;-59
2021/06/04 07:02:41;;;;;;;2.28;1.60;;;23.00;44.00;;;;;;5011465;28;20401;-59
2021/06/04 07:05:07;;;;;;;2.67;1.60;;;22.90;43.40;;;;;;5011547;28;20397;-60
2021/06/04 07:07:33;;;;;;;2.95;1.60;;;22.90;43.60;;;;;;5011423;28;20392;-59
2021/06/04 07:09:59;;;;;;;3.08;1.60;;;22.90;43.20;;;;;;5010879;28;20754;-60
2021/06/04 07:12:25;;;;;;;3.42;1.77;;;22.90;43.70;;;;;;5011333;28;20385;-61
2021/06/04 07:14:51;;;;;;;4.30;1.50;;;23.00;45.20;;;;;;5010990;28;20419;-60
2021/06/04 07:17:18;;;;;;;2.70;1.60;;;23.00;44.80;;;;;;5014091;28;20424;-59
2021/06/04 07:19:45;;;;;;;3.03;1.60;;;23.00;44.50;;;;;;5014864;28;20504;-58
2021/06/04 07:22:11;;;;;;;3.08;1.77;;;23.00;44.30;;;;;;5014903;28;20400;-59
2021/06/04 07:24:37;;;;;;;3.77;1.70;;;23.00;44.20;;;;;;5014888;28;20796;-59
2021/06/04 07:27:03;;;;;;;2.53;1.60;;;23.00;44.00;;;;;;5014952;28;20853;-59
2021/06/04 07:29:30;;;;;;;2.78;1.60;;;23.00;44.20;;;;;;5014962;28;20393;-59
2021/06/04 07:31:57;;;;;;;2.70;1.50;;;23.10;44.30;;;;;;5014629;28;20772;-60
2021/06/04 07:34:27;;;;;;;3.30;1.52;;;23.10;43.80;;;;;;5014832;28;20523;-63
2021/06/04 07:36:55;;;;;;;3.47;1.80;;;23.00;43.50;;;;;;5014958;28;20536;-60
2021/06/04 07:39:24;;;;;;;4.70;1.60;;;23.10;43.50;;;;;;5014829;28;20385;-60
2021/06/04 07:41:51;;;;;;;2.90;1.58;;;23.10;43.40;;;;;;5014597;28;20416;-60
2021/06/04 07:44:18;;;;;;;3.75;1.55;;;23.10;43.00;;;;;;5014232;28;20871;-59
2021/06/04 07:46:45;;;;;;;2.43;1.40;;;23.10;42.90;;;;;;5014083;28;20388;-64
2021/06/04 07:49:12;;;;;;;2.58;1.58;;;23.10;43.00;;;;;;5014430;28;20403;-63
2021/06/04 07:51:42;;;;;;;2.35;1.63;;;23.10;43.10;;;;;;5014621;28;20397;-60
2021/06/04 07:54:11;;;;;;;2.00;1.60;;;23.20;43.10;;;;;;5014190;28;20385;-60
2021/06/04 07:56:38;;;;;;;2.25;1.60;;;23.20;42.90;;;;;;5012859;28;20428;-58
2021/06/04 07:59:04;;;;;;;4.07;1.55;;;23.20;42.90;;;;;;5014062;28;20881;-60
2021/06/04 08:01:30;;;;;;;2.70;1.50;;;23.20;42.80;;;;;;5015680;28;20784;-61
2021/06/04 08:03:58;;;;;;;2.78;1.60;;;23.20;42.90;;;;;;5014241;28;20385;-64
2021/06/04 08:06:24;;;;;;;2.13;1.40;;;23.20;43.00;;;;;;5014590;28;20421;-59
2021/06/04 08:08:53;;;;;;;2.28;1.42;;;23.20;43.00;;;;;;5014532;28;20479;-63
2021/06/04 08:11:36;;;;;;;2.75;1.80;;;23.20;42.80;;;;;;5013758;28;20443;-59
2021/06/04 08:14:06;;;;;;;2.15;1.50;;;23.20;42.90;;;;;;5009431;28;20424;-59
2021/06/04 08:16:34;;;;;;;2.30;1.50;;;23.20;42.80;;;;;;5012251;28;20409;-60
2021/06/04 08:18:59;;;;;;;2.72;1.50;;;23.30;42.90;;;;;;5012493;28;20397;-60
2021/06/04 08:21:30;;;;;;;1.87;1.50;;;23.30;42.90;;;;;;5012417;28;20412;-60
2021/06/04 08:23:56;;;;;;;3.35;1.90;;;23.30;43.10;;;;;;5011705;28;20401;-59
2021/06/04 08:26:27;;;;;;;5.95;1.70;;;23.30;42.70;;;;;;5012580;28;20401;-60
2021/06/04 08:28:54;;;;;;;5.20;1.70;;;23.30;42.70;;;;;;5011707;28;20502;-63
2021/06/04 08:31:21;;;;;;;6.93;1.98;;;23.40;43.50;;;;;;5013655;28;20407;-60
2021/06/04 08:33:49;;;;;;;4.65;1.65;;;23.40;42.80;;;;;;5013313;28;20396;-61
2021/06/04 08:36:22;;;;;;;4.10;1.70;;;23.40;42.90;;;;;;5013265;28;20837;-62
2021/06/04 08:38:49;;;;;;;3.95;1.65;;;23.40;42.80;;;;;;5012211;28;20411;-65
2021/06/04 08:41:29;;;;;;;3.30;1.65;;;23.40;42.70;;;;;;5013614;28;20397;-65
2021/06/04 08:44:09;;;;;;;3.60;1.57;;;23.50;42.70;;;;;;5011499;28;20515;-60
2021/06/04 08:46:54;;;;;;;4.88;1.90;;;23.50;42.70;;;;;;5013376;28;20397;-60
2021/06/04 08:49:20;;;;;;;3.85;1.70;;;23.50;42.60;;;;;;5013419;28;21003;-64
2021/06/04 08:52:12;;;;;;;4.65;1.73;;;23.50;42.70;;;;;;5013078;28;20416;-61
2021/06/04 08:54:56;;;;;;;3.90;1.70;;;23.50;42.50;;;;;;5013061;28;20757;-59
2021/06/04 08:57:36;;;;;;;2.90;1.73;;;23.60;42.50;;;;;;5013322;28;20403;-61
2021/06/04 09:00:09;;;;;;;4.07;1.73;;;23.60;42.50;;;;;;5012044;28;20870;-60
2021/06/04 09:02:47;;;;;;;5.68;1.80;;;23.70;42.50;;;;;;5012587;28;20388;-60
2021/06/04 09:05:38;;;;;;;4.90;1.80;;;23.70;43.00;;;;;;5012908;28;20388;-60
2021/06/04 09:08:12;;;;;;;3.60;1.75;;;23.70;42.30;;;;;;5012599;28;20413;-59
2021/06/04 09:10:48;;;;;;;4.15;1.58;;;23.70;42.30;;;;;;5012908;28;20865;-59
2021/06/04 09:13:24;;;;;;;2.90;1.80;;;23.80;42.20;;;;;;5012910;28;20389;-59
2021/06/04 09:15:54;;;;;;;2.72;1.67;;;23.80;42.20;;;;;;5009945;28;20417;-60
2021/06/04 09:18:28;;;;;;;4.28;1.70;;;23.80;42.10;;;;;;5009233;28;20966;-59
2021/06/04 09:21:04;;;;;;;3.28;1.45;;;23.80;42.10;;;;;;5010800;28;20408;-59
2021/06/04 09:23:39;;;;;;;3.33;1.58;;;23.90;41.90;;;;;;5009629;28;20392;-59
2021/06/04 09:26:10;;;;;;;2.33;1.73;;;23.90;42.00;;;;;;5010555;28;20785;-59
2021/06/04 09:29:02;;;;;;;3.30;1.60;;;23.90;41.80;;;;;;5010821;28;20388;-59
2021/06/04 09:31:37;;;;;;;3.20;1.63;;;24.00;41.80;;;;;;5011236;28;20402;-59
2021/06/04 09:34:17;;;;;;;2.35;1.45;;;24.00;41.70;;;;;;5012141;28;20388;-59
2021/06/04 09:37:08;;;;;;;2.15;1.50;;;24.10;41.70;;;;;;5012478;28;20753;-60
2021/06/04 09:40:19;;;;;;;2.58;1.50;;;24.10;41.60;;;;;;5011825;28;20472;-59
2021/06/04 09:43:16;;;;;;;2.40;1.60;;;24.10;41.50;;;;;;5012400;28;20407;-59
2021/06/04 09:45:53;;;;;;;2.88;1.60;;;24.20;41.40;;;;;;5011651;28;20421;-60
2021/06/04 09:48:37;;;;;;;2.78;1.40;;;24.20;41.50;;;;;;5012182;28;20496;-59
2021/06/04 09:51:12;;;;;;;2.63;1.65;;;24.20;41.40;;;;;;5012177;28;20385;-60
2021/06/04 09:53:38;;;;;;;4.03;1.85;;;24.30;41.30;;;;;;5012026;28;20446;-60
2021/06/04 09:56:06;;;;;;;3.60;1.47;;;24.30;41.20;;;;;;5011638;28;20428;-60
2021/06/04 09:58:53;;;;;;;3.22;1.52;;;24.30;41.00;;;;;;5012163;28;20971;-60
2021/06/04 10:01:22;;;;;;;4.22;1.60;;;24.30;40.90;;;;;;5011843;28;20769;-59
2021/06/04 10:04:01;;;;;;;3.10;1.42;;;24.40;40.90;;;;;;5011817;28;20388;-59
2021/06/04 10:06:37;;;;;;;3.20;1.60;;;24.40;40.70;;;;;;5012109;28;20393;-60
2021/06/04 10:09:25;;;;;;;1.90;1.60;;;24.40;40.70;;;;;;5011968;28;20389;-63
2021/06/04 10:11:58;;;;;;;2.60;1.60;;;24.50;40.70;;;;;;5011490;28;20454;-59
2021/06/04 10:14:46;;;;;;;3.55;1.80;;;24.50;40.70;;;;;;5003421;28;20417;-61
2021/06/04 10:17:48;;;;;;;2.85;1.80;;;24.50;40.70;;;;;;5008860;28;20397;-59
2021/06/04 10:20:31;;;;;;;3.00;1.70;;;24.50;40.80;;;;;;5009385;28;20483;-59
2021/06/04 10:23:08;;;;;;;3.17;1.67;;;24.60;40.80;;;;;;5008606;28;20543;-60
2021/06/04 10:25:52;;;;;;;3.93;1.67;;;24.60;40.90;;;;;;5011633;28;20389;-59
2021/06/04 10:28:36;;;;;;;2.67;1.60;;;24.60;40.90;;;;;;5010025;28;20396;-60
2021/06/04 10:31:20;;;;;;;3.92;1.73;;;24.70;40.90;;;;;;5009468;28;20408;-60
2021/06/04 10:34:02;;;;;;;2.90;1.60;;;24.70;40.80;;;;;;5010077;28;20950;-60
2021/06/04 10:36:32;;;;;;;2.42;1.60;;;24.80;40.80;;;;;;5010280;28;20429;-61
2021/06/04 10:39:10;;;;;;;2.00;1.60;;;24.80;40.70;;;;;;5009905;28;20439;-60
2021/06/04 10:41:58;;;;;;;2.25;1.60;;;24.80;40.60;;;;;;5010176;28;20385;-59
2021/06/04 10:44:38;;;;;;;5.47;1.75;;;24.80;40.70;;;;;;5009106;28;20927;-59
2021/06/04 10:47:32;;;;;;;2.72;1.52;;;24.90;40.50;;;;;;5008538;28;20403;-59
2021/06/04 10:50:16;;;;;;;4.22;1.60;;;25.00;40.40;;;;;;5008607;28;20397;-59
2021/06/04 10:52:45;;;;;;;2.38;1.48;;;25.00;40.30;;;;;;5011698;28;20389;-59
2021/06/04 10:55:20;;;;;;;2.15;1.48;;;25.10;40.30;;;;;;5011587;28;20908;-59
2021/06/04 10:57:55;;;;;;;2.87;1.37;;;25.10;40.10;;;;;;5013846;28;20482;-59
2021/06/04 11:00:32;;;;;;;1.92;1.60;;;25.10;40.10;;;;;;5013854;28;20397;-59
2021/06/04 11:03:17;;;;;;;2.20;1.42;;;25.20;40.10;;;;;;5013919;28;20853;-59
2021/06/04 11:05:57;;;;;;;2.40;1.30;;;25.30;40.10;;;;;;5013165;28;20408;-59
2021/06/04 11:08:26;;;;;;;2.13;1.50;;;25.30;39.90;;;;;;5012981;28;20381;-59
2021/06/04 11:10:55;;;;;;;2.05;1.60;;;25.30;39.80;;;;;;5011430;28;20401;-59
2021/06/04 11:13:42;;;;;;;2.15;1.50;;;25.30;39.60;;;;;;5013809;28;20447;-59
2021/06/04 11:16:36;;;;;;;3.53;1.50;;;25.30;39.50;;;;;;5012971;28;20425;-61
2021/06/04 11:19:27;;;;;;;1.90;1.45;;;25.40;39.60;;;;;;5012951;28;21005;-59
2021/06/04 11:21:57;;;;;;;2.03;1.20;;;25.40;39.60;;;;;;5013387;28;20935;-59
2021/06/04 11:24:32;;;;;;;2.95;1.40;;;25.40;39.40;;;;;;5013270;28;20400;-59
2021/06/04 11:26:57;;;;;;;3.00;1.40;;;25.40;39.40;;;;;;5011851;28;20491;-59
2021/06/04 11:29:30;;;;;;;2.25;1.40;;;25.50;39.40;;;;;;5013534;28;20432;-59
2021/06/04 11:32:01;;;;;;;1.90;1.50;;;25.50;39.40;;;;;;5012618;28;20905;-59
2021/06/04 11:34:59;;;;;;;2.58;1.48;;;25.50;39.30;;;;;;5012615;28;20408;-66
2021/06/04 11:37:37;;;;;;;2.00;1.35;;;25.30;39.90;;;;;;5012773;28;20471;-65
2021/06/04 11:40:17;;;;;;;2.37;1.50;;;25.10;39.70;;;;;;5013087;28;20393;-61
2021/06/04 11:43:04;;;;;;;1.60;1.23;;;25.00;39.80;;;;;;5012716;28;20388;-62
2021/06/04 11:45:32;;;;;;;2.03;1.30;;;24.80;39.90;;;;;;5013295;28;20897;-60
2021/06/04 11:48:19;;;;;;;2.00;1.40;;;24.80;40.10;;;;;;5011537;28;20388;-59
2021/06/04 11:50:45;;;;;;;2.08;1.50;;;24.70;40.20;;;;;;5012417;28;20408;-60
2021/06/04 11:53:29;;;;;;;1.90;1.30;;;24.60;40.30;;;;;;5013146;28;20810;-65
2021/06/04 11:55:55;;;;;;;2.35;1.30;;;24.60;40.40;;;;;;5012576;28;20420;-59
2021/06/04 11:58:30;;;;;;;2.35;1.60;;;24.50;40.30;;;;;;5012747;28;20895;-59
2021/06/04 12:01:20;;;;;;;4.18;1.58;;;24.40;40.70;;;;;;5011010;28;20428;-59
2021/06/04 12:04:01;;;;;;;4.03;1.42;;;24.30;41.00;;;;;;5011109;28;20388;-59
2021/06/04 12:06:36;;;;;;;2.05;1.40;;;24.30;41.10;;;;;;5012580;28;20385;-60
2021/06/04 12:09:30;;;;;;;3.23;1.50;;;24.30;41.20;;;;;;5012933;28;20389;-59
2021/06/04 12:12:19;;;;;;;3.35;1.50;;;24.30;41.30;;;;;;5011577;28;20395;-64
2021/06/04 12:14:54;;;;;;;2.20;1.50;;;24.30;41.40;;;;;;5013937;28;20424;-60
2021/06/04 12:17:29;;;;;;;2.13;1.30;;;24.30;41.50;;;;;;5013568;28;20392;-59
2021/06/04 12:20:28;;;;;;;2.50;1.58;;;24.20;41.60;;;;;;5014060;28;20384;-60
2021/06/04 12:23:08;;;;;;;1.75;1.35;;;24.20;41.60;;;;;;5012486;28;21002;-59
2021/06/04 12:25:49;;;;;;;2.50;1.50;;;24.20;41.60;;;;;;5009331;28;20479;-60
2021/06/04 12:28:18;;;;;;;2.00;1.20;;;24.30;41.70;;;;;;5008678;28;20691;-59
2021/06/04 12:30:47;;;;;;;2.22;1.40;;;24.20;41.70;;;;;;5010266;28;20424;-59
2021/06/04 12:33:30;;;;;;;1.95;1.65;;;24.20;41.80;;;;;;5012377;28;20396;-65
2021/06/04 12:35:55;;;;;;;2.55;1.55;;;24.20;41.80;;;;;;5013236;28;20508;-61
2021/06/04 12:38:33;;;;;;;1.58;1.38;;;24.20;41.90;;;;;;5013050;28;20476;-59
2021/06/04 12:41:03;;;;;;;1.50;1.30;;;24.20;41.90;;;;;;5009948;28;20393;-60
2021/06/04 12:43:33;;;;;;;2.20;1.40;;;24.20;42.00;;;;;;5011806;28;20459;-62
2021/06/04 12:46:11;;;;;;;1.65;1.40;;;24.20;41.90;;;;;;5012845;28;20512;-60
2021/06/04 12:48:39;;;;;;;1.83;1.50;;;24.20;42.00;;;;;;5011974;28;20389;-59
2021/06/04 12:51:08;;;;;;;1.90;1.33;;;24.10;41.80;;;;;;5013685;28;20392;-58
2021/06/04 12:53:40;;;;;;;1.70;1.42;;;24.10;41.90;;;;;;5013337;28;20396;-59
2021/06/04 12:56:22;;;;;;;2.00;1.38;;;24.10;41.90;;;;;;5012872;28;20900;-59
2021/06/04 12:58:54;;;;;;;1.77;1.40;;;24.10;42.20;;;;;;5013236;28;20861;-59
2021/06/04 13:01:22;;;;;;;2.00;1.48;;;24.10;42.10;;;;;;5013195;28;20761;-58
2021/06/04 13:04:12;;;;;;;2.23;1.43;;;24.10;41.90;;;;;;5012598;28;20397;-59
2021/06/04 13:06:41;;;;;;;2.90;1.60;;;24.10;41.90;;;;;;5012646;28;20404;-59
2021/06/04 13:09:26;;;;;;;2.33;1.50;;;24.10;41.90;;;;;;5012908;28;20399;-59
2021/06/04 13:11:52;;;;;;;3.08;1.40;;;24.10;42.80;;;;;;5012866;28;20538;-59
2021/06/04 13:14:35;;;;;;;3.42;1.60;;;24.10;42.80;;;;;;5011159;28;20432;-59
2021/06/04 13:17:21;;;;;;;3.05;1.40;;;24.10;42.90;;;;;;5011865;28;20397;-59
2021/06/04 13:19:49;;;;;;;2.72;1.23;;;24.10;43.00;;;;;;5009499;28;20385;-59